createdAt,value
2018-01-08T00:00:16.310Z,8.17
2018-01-08T00:02:45.630Z,6.20
2018-01-08T00:05:14.145Z,7.80
2018-01-08T00:07:42.758Z,8.30
2018-01-08T00:10:20.863Z,7.67
2018-01-08T00:12:49.423Z,9.07
2018-01-08T00:15:17.929Z,7.07
2018-01-08T00:17:46.512Z,7.27
2018-01-08T00:20:15.076Z,12.50
2018-01-08T00:22:43.630Z,8.20
2018-01-08T00:25:12.167Z,9.37
2018-01-08T00:27:40.745Z,8.70
2018-01-08T00:30:09.270Z,9.70
2018-01-08T00:32:37.809Z,7.37
2018-01-08T00:35:06.372Z,10.87
2018-01-08T00:37:34.865Z,10.63
2018-01-08T00:40:03.463Z,12.07
2018-01-08T00:42:32.019Z,9.43
2018-01-08T00:45:00.552Z,10.00
2018-01-08T00:47:29.112Z,10.20
2018-01-08T00:49:58.427Z,13.37
2018-01-08T00:52:27.770Z,9.83
2018-01-08T00:54:56.333Z,10.93
2018-01-08T00:57:24.930Z,11.50
2018-01-08T00:59:53.426Z,10.13
2018-01-08T01:02:21.974Z,8.30
2018-01-08T01:04:50.486Z,10.23
2018-01-08T01:07:19.069Z,8.27
2018-01-08T01:09:48.521Z,8.83
2018-01-08T01:12:17.802Z,8.73
2018-01-08T01:14:46.288Z,9.00
2018-01-08T01:17:14.690Z,9.20
2018-01-08T01:19:43.249Z,8.03
2018-01-08T01:22:11.777Z,8.70
2018-01-08T01:24:40.336Z,10.27
2018-01-08T01:27:09.689Z,9.83
2018-01-08T01:29:38.242Z,8.57
2018-01-08T01:32:06.848Z,8.70
2018-01-08T01:34:35.407Z,7.97
2018-01-08T01:37:06.213Z,9.73
2018-01-08T01:39:35.757Z,7.47
2018-01-08T01:42:05.273Z,7.50
2018-01-08T01:44:34.811Z,9.97
2018-01-08T01:47:04.385Z,8.67
2018-01-08T01:49:33.942Z,8.10
2018-01-08T01:52:03.535Z,10.33
2018-01-08T01:54:33.066Z,9.87
2018-01-08T01:57:02.645Z,10.17
2018-01-08T01:59:32.214Z,14.97
2018-01-08T02:02:01.799Z,10.07
2018-01-08T02:04:31.359Z,9.50
2018-01-08T02:07:00.937Z,9.07
2018-01-08T02:09:30.494Z,8.50
2018-01-08T02:12:00.029Z,9.23
2018-01-08T02:14:29.581Z,9.73
2018-01-08T02:16:59.162Z,9.57
2018-01-08T02:19:28.737Z,12.57
2018-01-08T02:21:58.318Z,10.93
2018-01-08T02:24:27.883Z,10.67
2018-01-08T02:26:57.442Z,10.57
2018-01-08T02:29:26.983Z,11.70
2018-01-08T02:31:56.583Z,9.70
2018-01-08T02:34:26.163Z,10.53
2018-01-08T02:36:55.736Z,11.13
2018-01-08T02:39:25.305Z,9.30
2018-01-08T02:41:54.871Z,11.13
2018-01-08T02:44:24.445Z,10.93
2018-01-08T02:46:53.999Z,12.47
2018-01-08T02:49:23.541Z,12.20
2018-01-08T02:51:53.100Z,12.93
2018-01-08T02:54:22.657Z,12.53
2018-01-08T02:56:52.429Z,11.30
2018-01-08T02:59:22.035Z,11.53
2018-01-08T03:01:51.596Z,11.13
2018-01-08T03:04:21.178Z,12.47
2018-01-08T03:06:50.765Z,12.10
2018-01-08T03:09:20.354Z,11.10
2018-01-08T03:11:49.946Z,11.93
2018-01-08T03:14:19.501Z,12.93
2018-01-08T03:16:49.037Z,12.30
2018-01-08T03:19:18.612Z,11.93
2018-01-08T03:21:48.186Z,14.83
2018-01-08T03:24:17.746Z,12.07
2018-01-08T03:26:47.284Z,13.87
2018-01-08T03:29:16.873Z,13.10
2018-01-08T03:31:46.453Z,12.83
2018-01-08T03:34:16.027Z,15.20
2018-01-08T03:36:45.597Z,12.37
2018-01-08T03:39:15.109Z,11.67
2018-01-08T03:41:44.672Z,13.90
2018-01-08T03:44:14.233Z,13.67
2018-01-08T03:46:43.819Z,12.77
2018-01-08T03:49:13.382Z,15.50
2018-01-08T03:51:42.947Z,12.80
2018-01-08T03:54:12.525Z,14.03
2018-01-08T03:56:42.107Z,12.60
2018-01-08T03:59:11.660Z,13.57
2018-01-08T04:01:41.230Z,13.53
2018-01-08T04:04:10.785Z,14.67
2018-01-08T04:06:40.415Z,13.43
2018-01-08T04:09:09.990Z,13.87
2018-01-08T04:11:39.571Z,13.27
2018-01-08T04:14:09.093Z,14.40
2018-01-08T04:16:38.676Z,13.53
2018-01-08T04:19:08.259Z,16.23
2018-01-08T04:21:37.823Z,13.87
2018-01-08T04:24:07.386Z,14.83
2018-01-08T04:26:36.951Z,15.03
2018-01-08T04:29:06.543Z,15.80
2018-01-08T04:31:36.043Z,13.67
2018-01-08T04:34:05.566Z,12.10
2018-01-08T04:36:35.181Z,13.17
2018-01-08T04:39:04.425Z,15.43
2018-01-08T04:41:33.999Z,14.77
2018-01-08T04:44:03.565Z,14.30
2018-01-08T04:46:33.135Z,14.73
2018-01-08T04:49:02.688Z,15.33
2018-01-08T04:51:32.252Z,15.93
2018-01-08T04:54:01.825Z,14.63
2018-01-08T04:56:31.404Z,14.43
2018-01-08T04:59:01.178Z,16.33
2018-01-08T05:01:30.733Z,16.43
2018-01-08T05:04:00.290Z,12.97
2018-01-08T05:06:29.851Z,12.70
2018-01-08T05:08:59.445Z,15.13
2018-01-08T05:11:28.999Z,16.90
2018-01-08T05:13:58.545Z,15.47
2018-01-08T05:16:28.117Z,15.83
2018-01-08T05:18:57.694Z,19.27
2018-01-08T05:21:27.253Z,15.87
2018-01-08T05:23:56.840Z,16.23
2018-01-08T05:26:26.429Z,16.23
2018-01-08T05:28:56.005Z,15.90
2018-01-08T05:31:25.604Z,18.00
2018-01-08T05:33:55.167Z,15.93
2018-01-08T05:36:24.770Z,15.77
2018-01-08T05:38:54.325Z,15.40
2018-01-08T05:41:23.890Z,16.40
2018-01-08T05:43:53.464Z,14.33
2018-01-08T05:46:23.045Z,15.10
2018-01-08T05:48:52.632Z,16.33
2018-01-08T05:51:22.214Z,17.17
2018-01-08T05:53:51.795Z,16.00
2018-01-08T05:56:21.369Z,14.93
2018-01-08T05:58:50.944Z,13.57
2018-01-08T06:01:20.493Z,15.77
2018-01-08T06:03:49.994Z,15.53
2018-01-08T06:06:19.553Z,16.83
2018-01-08T06:08:49.115Z,14.40
2018-01-08T06:11:18.701Z,14.23
2018-01-08T06:13:48.265Z,16.60
2018-01-08T06:16:17.824Z,17.43
2018-01-08T06:18:47.421Z,16.87
2018-01-08T06:21:17.015Z,14.57
2018-01-08T06:23:46.577Z,15.80
2018-01-08T06:26:16.109Z,16.13
2018-01-08T06:28:45.682Z,17.53
2018-01-08T06:31:15.232Z,18.07
2018-01-08T06:33:44.823Z,14.07
2018-01-08T06:36:14.381Z,15.27
2018-01-08T06:38:43.954Z,17.10
2018-01-08T06:41:13.534Z,18.53
2018-01-08T06:43:43.085Z,15.97
2018-01-08T06:46:12.654Z,17.70
2018-01-08T06:48:42.190Z,16.97
2018-01-08T06:51:11.736Z,15.87
2018-01-08T06:53:41.289Z,14.93
2018-01-08T06:56:10.850Z,16.30
2018-01-08T06:58:40.400Z,16.80
2018-01-08T07:01:09.946Z,18.87
2018-01-08T07:03:39.523Z,17.20
2018-01-08T07:06:09.120Z,17.13
2018-01-08T07:08:38.682Z,15.77
2018-01-08T07:11:08.254Z,16.37
2018-01-08T07:13:37.829Z,14.17
2018-01-08T07:16:07.384Z,16.23
2018-01-08T07:18:36.941Z,15.97
2018-01-08T07:21:06.493Z,15.40
2018-01-08T07:23:36.021Z,16.57
2018-01-08T07:26:05.590Z,18.53
2018-01-08T07:28:35.144Z,16.83
2018-01-08T07:31:04.703Z,15.47
2018-01-08T07:33:34.253Z,15.87
2018-01-08T07:36:04.002Z,17.50
2018-01-08T07:38:33.564Z,15.80
2018-01-08T07:41:03.182Z,16.17
2018-01-08T07:43:32.777Z,18.83
2018-01-08T07:46:02.398Z,18.40
2018-01-08T07:48:32.006Z,18.03
2018-01-08T07:51:01.600Z,19.60
2018-01-08T07:53:31.199Z,15.03
2018-01-08T07:56:00.780Z,15.63
2018-01-08T07:58:30.353Z,17.07
2018-01-08T08:00:59.943Z,17.83
2018-01-08T08:03:29.529Z,18.00
2018-01-08T08:05:59.082Z,17.60
2018-01-08T08:08:28.669Z,18.27
2018-01-08T08:10:58.238Z,17.10
2018-01-08T08:13:27.798Z,17.03
2018-01-08T08:15:57.667Z,17.70
2018-01-08T08:18:27.283Z,14.07
2018-01-08T08:20:57.354Z,15.83
2018-01-08T08:23:26.977Z,16.07
2018-01-08T08:25:56.510Z,19.17
2018-01-08T08:28:26.238Z,17.87
2018-01-08T08:30:56.638Z,20.43
2018-01-08T08:33:26.932Z,17.73
2018-01-08T08:35:56.533Z,17.67
2018-01-08T08:38:26.093Z,18.43
2018-01-08T08:40:55.670Z,16.77
2018-01-08T08:43:25.242Z,19.20
2018-01-08T08:45:54.808Z,16.10
2018-01-08T08:48:24.386Z,16.97
2018-01-08T08:50:53.952Z,16.27
2018-01-08T08:53:23.522Z,19.57
2018-01-08T08:55:53.205Z,15.80
2018-01-08T08:58:32.749Z,14.30
2018-01-08T09:01:02.830Z,18.23
2018-01-08T09:03:32.404Z,16.10
2018-01-08T09:06:01.974Z,14.53
2018-01-08T09:08:31.598Z,17.87
2018-01-08T09:11:01.165Z,12.63
2018-01-08T09:13:31.721Z,21.47
2018-01-08T09:16:01.279Z,20.80
2018-01-08T09:18:30.821Z,17.83
2018-01-08T09:21:00.377Z,14.37
2018-01-08T09:23:29.966Z,18.73
2018-01-08T09:25:59.548Z,15.07
2018-01-08T09:28:29.090Z,16.03
2018-01-08T09:30:58.646Z,15.73
2018-01-08T09:33:28.210Z,17.77
2018-01-08T09:35:57.789Z,14.33
2018-01-08T09:38:27.405Z,17.30
2018-01-08T09:40:57.007Z,16.93
2018-01-08T09:43:26.581Z,15.73
2018-01-08T09:45:56.134Z,15.50
2018-01-08T09:48:25.758Z,14.37
2018-01-08T09:50:55.359Z,17.03
2018-01-08T09:53:24.924Z,18.07
2018-01-08T09:55:54.497Z,17.60
2018-01-08T09:58:24.068Z,21.93
2018-01-08T10:00:59.791Z,17.43
2018-01-08T10:03:43.712Z,17.00
2018-01-08T10:06:18.768Z,17.33
2018-01-08T10:08:53.842Z,18.80
2018-01-08T10:11:28.911Z,30.37
2018-01-08T10:14:03.987Z,21.10
2018-01-08T10:16:39.075Z,19.17
2018-01-08T10:19:26.127Z,18.33
2018-01-08T10:21:55.699Z,17.17
2018-01-08T10:24:25.273Z,18.60
2018-01-08T10:26:54.855Z,15.60
2018-01-08T10:29:23.442Z,14.50
2018-01-08T10:31:51.670Z,18.90
2018-01-08T10:34:19.957Z,14.30
2018-01-08T10:36:47.903Z,15.53
2018-01-08T10:39:16.448Z,12.70
2018-01-08T10:47:36.896Z,15.27
2018-01-08T10:50:10.842Z,15.33
2018-01-08T10:52:39.271Z,16.37
2018-01-08T10:55:15.290Z,15.73
2018-01-08T10:57:43.858Z,15.97
2018-01-08T11:00:12.453Z,16.07
2018-01-08T11:02:46.531Z,15.07
2018-01-08T11:05:15.120Z,16.73
2018-01-08T11:07:44.650Z,14.77
2018-01-08T11:10:13.366Z,14.93
2018-01-08T11:12:41.929Z,14.77
2018-01-08T11:15:10.491Z,17.13
2018-01-08T11:17:50.708Z,17.30
2018-01-08T11:20:18.983Z,13.87
2018-01-08T11:22:48.266Z,17.70
2018-01-08T11:25:16.546Z,17.47
2018-01-08T11:27:45.130Z,14.67
2018-01-08T11:30:13.367Z,16.00
2018-01-08T11:32:41.967Z,13.97
2018-01-08T11:35:11.283Z,17.23
2018-01-08T11:37:39.187Z,19.07
2018-01-08T11:40:07.126Z,15.63
2018-01-08T11:42:35.090Z,15.30
2018-01-08T11:45:03.022Z,14.27
2018-01-08T11:47:31.294Z,12.83
2018-01-08T11:49:59.260Z,13.13
2018-01-08T11:52:27.150Z,13.23
2018-01-08T11:54:55.860Z,15.83
2018-01-08T11:57:25.111Z,14.57
2018-01-08T11:59:53.030Z,16.57
2018-01-08T12:02:21.295Z,12.77
2018-01-08T12:04:49.586Z,15.60
2018-01-08T12:07:17.485Z,16.67
2018-01-08T12:09:45.414Z,16.20
2018-01-08T12:12:15.267Z,17.40
2018-01-08T12:14:43.559Z,17.30
2018-01-08T12:17:11.495Z,17.00
2018-01-08T12:19:40.047Z,16.97
2018-01-08T12:22:08.642Z,14.00
2018-01-08T12:24:37.233Z,14.70
2018-01-08T12:27:05.806Z,15.97
2018-01-08T12:29:35.396Z,15.07
2018-01-08T12:32:04.982Z,14.13
2018-01-08T12:34:34.525Z,13.73
2018-01-08T12:37:04.021Z,15.60
2018-01-08T12:39:33.605Z,16.27
2018-01-08T12:42:02.950Z,14.63
2018-01-08T12:44:31.460Z,15.63
2018-01-08T12:47:00.056Z,14.10
2018-01-08T12:49:28.299Z,14.30
2018-01-08T12:51:56.887Z,16.80
2018-01-08T12:54:25.490Z,19.13
2018-01-08T12:56:54.044Z,14.20
2018-01-08T12:59:22.576Z,15.63
2018-01-08T13:01:51.314Z,19.27
2018-01-08T13:04:19.278Z,16.97
2018-01-08T13:06:47.191Z,14.33
2018-01-08T13:09:15.780Z,16.53
2018-01-08T13:11:44.347Z,18.00
2018-01-08T13:14:12.872Z,18.70
2018-01-08T13:16:41.394Z,18.67
2018-01-08T13:19:09.991Z,17.73
2018-01-08T13:21:38.580Z,15.50
2018-01-08T13:24:07.370Z,16.10
2018-01-08T13:26:35.926Z,16.30
2018-01-08T13:29:04.453Z,15.33
2018-01-08T13:31:33.785Z,17.10
2018-01-08T13:34:02.403Z,18.20
2018-01-08T13:36:30.951Z,14.77
2018-01-08T13:38:59.487Z,16.33
2018-01-08T13:41:29.057Z,14.93
2018-01-08T13:43:57.319Z,15.13
2018-01-08T13:46:25.262Z,15.90
2018-01-08T13:48:53.987Z,18.23
2018-01-08T13:51:21.952Z,14.90
2018-01-08T13:53:51.224Z,15.20
2018-01-08T13:56:20.499Z,15.97
2018-01-08T13:58:50.654Z,13.77
2018-01-08T14:01:19.897Z,15.30
2018-01-08T14:03:49.171Z,14.23
2018-01-08T14:06:17.122Z,14.03
2018-01-08T14:08:45.091Z,15.03
2018-01-08T14:11:13.042Z,16.10
2018-01-08T14:13:40.959Z,15.87
2018-01-08T14:16:09.526Z,31.60
2018-01-08T14:18:38.090Z,19.00
2018-01-08T14:21:06.675Z,16.30
2018-01-08T14:23:35.215Z,17.10
2018-01-08T14:26:03.520Z,18.07
2018-01-08T14:28:32.838Z,14.33
2018-01-08T14:31:01.074Z,17.70
2018-01-08T14:33:29.638Z,17.10
2018-01-08T14:35:58.252Z,20.53
2018-01-08T14:38:27.531Z,15.13
2018-01-08T14:40:56.095Z,14.07
2018-01-08T14:43:24.714Z,17.30
2018-01-08T14:45:53.738Z,17.27
2018-01-08T14:48:22.308Z,15.87
2018-01-08T14:50:50.559Z,14.23
2018-01-08T14:53:19.082Z,14.53
2018-01-08T14:55:47.633Z,17.17
2018-01-08T14:58:15.916Z,15.63
2018-01-08T15:00:44.652Z,14.37
2018-01-08T15:03:13.221Z,13.13
2018-01-08T15:05:41.843Z,13.13
2018-01-08T15:08:10.066Z,13.57
2018-01-08T15:10:38.749Z,14.90
2018-01-08T15:13:07.298Z,15.30
2018-01-08T15:15:35.871Z,15.30
2018-01-08T15:18:07.456Z,13.90
2018-01-08T15:20:36.478Z,13.67
2018-01-08T15:23:05.061Z,13.73
2018-01-08T15:25:33.132Z,14.13
2018-01-08T15:28:01.691Z,13.63
2018-01-08T15:30:31.026Z,15.13
2018-01-08T15:32:59.575Z,13.37
2018-01-08T15:35:28.896Z,14.27
2018-01-08T15:37:58.230Z,14.60
2018-01-08T15:40:42.899Z,14.67
2018-01-08T15:43:11.435Z,12.23
2018-01-08T15:45:39.994Z,14.33
2018-01-08T15:51:02.334Z,16.73
2018-01-08T15:53:30.863Z,16.73
2018-01-08T15:55:59.425Z,13.23
2018-01-08T15:58:27.989Z,14.97
2018-01-08T16:00:57.019Z,24.63
2018-01-08T16:03:25.567Z,17.33
2018-01-08T16:05:54.883Z,16.20
2018-01-08T16:08:23.434Z,14.90
2018-01-08T16:10:52.055Z,15.00
2018-01-08T16:13:20.618Z,16.67
2018-01-08T16:15:49.931Z,16.23
2018-01-08T16:18:18.494Z,15.87
2018-01-08T16:20:47.084Z,13.30
2018-01-08T16:23:16.413Z,13.00
2018-01-08T16:25:44.976Z,12.80
2018-01-08T16:28:14.226Z,13.27
2018-01-08T16:30:42.770Z,14.37
2018-01-08T16:33:11.390Z,13.83
2018-01-08T16:35:39.881Z,16.13
2018-01-08T16:38:08.434Z,13.50
2018-01-08T16:40:37.002Z,13.70
2018-01-08T16:43:06.351Z,13.70
2018-01-08T16:45:34.902Z,16.53
2018-01-08T16:48:03.435Z,14.77
2018-01-08T16:50:32.092Z,13.43
2018-01-08T16:53:00.629Z,14.23
2018-01-08T16:55:29.542Z,13.20
2018-01-08T16:57:58.072Z,25.63
2018-01-08T17:00:26.658Z,14.87
2018-01-08T17:02:57.785Z,17.40
2018-01-08T17:05:26.825Z,14.97
2018-01-08T17:07:55.381Z,17.27
2018-01-08T17:10:23.884Z,16.53
2018-01-08T17:12:53.414Z,18.53
2018-01-08T17:15:22.019Z,14.80
2018-01-08T17:17:52.086Z,14.90
2018-01-08T17:20:20.987Z,20.20
2018-01-08T17:22:49.534Z,31.70
2018-01-08T17:25:18.062Z,18.87
2018-01-08T17:27:46.604Z,13.30
2018-01-08T17:30:15.143Z,12.10
2018-01-08T17:32:43.706Z,14.33
2018-01-08T17:35:12.243Z,18.17
2018-01-08T17:37:40.778Z,16.27
2018-01-08T17:40:09.343Z,15.90
2018-01-08T17:42:37.979Z,14.47
2018-01-08T17:45:06.542Z,12.67
2018-01-08T17:47:35.304Z,12.60
2018-01-08T17:50:03.523Z,11.93
2018-01-08T17:52:32.068Z,12.03
2018-01-08T17:55:01.080Z,14.33
2018-01-08T17:57:29.755Z,12.07
2018-01-08T17:59:58.292Z,12.33
2018-01-08T18:02:26.807Z,12.50
2018-01-08T18:04:55.358Z,14.33
2018-01-08T18:07:23.897Z,12.60
2018-01-08T18:09:52.412Z,15.37
2018-01-08T18:12:20.974Z,12.30
2018-01-08T18:14:49.543Z,11.23
2018-01-08T18:17:18.046Z,11.83
2018-01-08T18:19:46.956Z,13.07
2018-01-08T18:22:15.538Z,12.10
2018-01-08T18:24:45.030Z,13.00
2018-01-08T18:27:13.936Z,10.87
2018-01-08T18:29:43.231Z,14.30
2018-01-08T18:32:11.843Z,14.53
2018-01-08T18:34:40.420Z,14.40
2018-01-08T18:37:09.209Z,12.40
2018-01-08T18:39:37.784Z,11.03
2018-01-08T18:42:07.121Z,14.73
2018-01-08T18:44:35.747Z,11.13
2018-01-08T18:47:04.488Z,11.70
2018-01-08T18:49:33.096Z,12.17
2018-01-08T18:52:01.747Z,11.60
2018-01-08T18:54:30.254Z,12.30
2018-01-08T18:56:58.887Z,12.03
2018-01-08T18:59:28.205Z,12.00
2018-01-08T19:01:56.738Z,13.03
2018-01-08T19:04:25.313Z,11.17
2018-01-08T19:06:53.823Z,12.97
2018-01-08T19:09:22.396Z,11.83
2018-01-08T19:11:51.062Z,11.37
2018-01-08T19:14:19.626Z,10.70
2018-01-08T19:16:48.186Z,11.80
2018-01-08T19:19:17.490Z,9.93
2018-01-08T19:21:46.039Z,11.33
2018-01-08T19:24:14.531Z,10.67
2018-01-08T19:26:43.852Z,11.73
2018-01-08T19:29:12.420Z,8.57
2018-01-08T19:31:40.962Z,11.87
2018-01-08T19:34:09.518Z,10.93
2018-01-08T19:36:38.092Z,10.33
2018-01-08T19:39:06.603Z,10.10
2018-01-08T19:41:35.123Z,10.13
2018-01-08T19:44:03.758Z,9.77
2018-01-08T19:46:32.276Z,11.93
2018-01-08T19:49:00.839Z,11.60
2018-01-08T19:51:29.538Z,10.10
2018-01-08T19:53:58.043Z,10.13
2018-01-08T19:56:27.533Z,9.17
2018-01-08T19:58:56.067Z,9.57
2018-01-08T20:01:25.334Z,11.80
2018-01-08T20:03:53.983Z,9.77
2018-01-08T20:06:22.487Z,11.60
2018-01-08T20:08:51.785Z,10.13
2018-01-08T20:11:20.330Z,8.77
2018-01-08T20:13:48.827Z,9.73
2018-01-08T20:16:17.374Z,8.27
2018-01-08T20:18:45.907Z,9.80
2018-01-08T20:21:14.533Z,9.93
2018-01-08T20:23:43.055Z,10.53
2018-01-08T20:26:11.597Z,10.73
2018-01-08T20:28:40.141Z,15.67
2018-01-08T20:31:09.583Z,10.37
2018-01-08T20:33:39.014Z,12.73
2018-01-08T20:36:09.825Z,12.47
2018-01-08T20:38:38.318Z,14.07
2018-01-08T20:41:06.558Z,11.27
2018-01-08T20:43:35.136Z,13.53
2018-01-08T20:46:04.454Z,11.77
2018-01-08T20:48:32.995Z,10.43
2018-01-08T20:51:03.530Z,11.97
2018-01-08T20:53:32.065Z,10.80
2018-01-08T20:56:10.356Z,14.13
2018-01-08T20:58:39.703Z,21.37
2018-01-08T21:01:08.190Z,16.87
2018-01-08T21:03:36.764Z,9.70
2018-01-08T21:06:06.273Z,9.70
2018-01-08T21:08:34.813Z,10.00
2018-01-08T21:11:03.352Z,11.57
2018-01-08T21:13:31.870Z,12.37
2018-01-08T21:16:01.178Z,12.63
2018-01-08T21:18:33.414Z,13.23
2018-01-08T21:21:01.954Z,10.00
2018-01-08T21:23:30.442Z,13.27
2018-01-08T21:25:58.950Z,9.13
2018-01-08T21:28:27.490Z,10.17
2018-01-08T21:30:56.013Z,9.63
2018-01-08T21:33:24.554Z,9.90
2018-01-08T21:35:53.099Z,10.27
2018-01-08T21:38:22.354Z,8.17
2018-01-08T21:40:50.908Z,10.83
2018-01-08T21:43:19.451Z,10.93
2018-01-08T21:45:48.010Z,12.07
2018-01-08T21:48:16.555Z,8.30
2018-01-08T21:50:45.215Z,10.20
2018-01-08T21:53:13.859Z,9.53
2018-01-08T21:55:45.615Z,10.97
2018-01-08T21:58:14.176Z,11.50
2018-01-08T22:00:42.668Z,10.30
2018-01-08T22:03:11.186Z,9.90
2018-01-08T22:05:39.751Z,15.10
2018-01-08T22:08:08.359Z,9.57
2018-01-08T22:10:36.908Z,11.33
2018-01-08T22:13:05.442Z,10.43
2018-01-08T22:15:34.764Z,8.23
2018-01-08T22:18:03.278Z,11.30
2018-01-08T22:20:31.831Z,9.47
2018-01-08T22:23:00.397Z,10.63
2018-01-08T22:25:28.958Z,11.70
2018-01-08T22:27:57.479Z,10.37
2018-01-08T22:30:25.988Z,11.07
2018-01-08T22:32:54.522Z,9.50
2018-01-08T22:35:23.811Z,11.20
2018-01-08T22:37:53.126Z,9.83
2018-01-08T22:40:22.427Z,10.27
2018-01-08T22:42:50.967Z,9.60
2018-01-08T22:45:19.451Z,10.77
2018-01-08T22:47:47.994Z,11.03
2018-01-08T22:50:17.326Z,8.70
2018-01-08T22:52:45.862Z,8.10
2018-01-08T22:55:15.443Z,10.27
2018-01-08T22:57:43.970Z,8.63
2018-01-08T23:00:12.486Z,9.60
2018-01-08T23:02:41.050Z,9.90
2018-01-08T23:05:09.590Z,11.17
2018-01-08T23:07:38.142Z,8.00
2018-01-08T23:10:06.704Z,10.43
2018-01-08T23:12:35.260Z,13.47
2018-01-08T23:15:03.767Z,8.97
2018-01-08T23:17:32.318Z,10.27
2018-01-08T23:20:00.893Z,8.90
2018-01-08T23:22:29.473Z,9.60
2018-01-08T23:24:58.026Z,7.53
2018-01-08T23:27:26.652Z,10.40
2018-01-08T23:29:55.187Z,8.60
2018-01-08T23:32:24.525Z,8.93
2018-01-08T23:34:53.065Z,8.83
2018-01-08T23:37:21.572Z,10.20
2018-01-08T23:39:50.104Z,9.00
2018-01-08T23:42:18.633Z,8.53
2018-01-08T23:44:47.936Z,8.97
2018-01-08T23:47:17.198Z,8.97
2018-01-08T23:49:45.766Z,9.90
2018-01-08T23:52:14.264Z,9.00
2018-01-08T23:54:42.811Z,8.83
2018-01-08T23:57:11.363Z,8.40
2018-01-08T23:59:40.046Z,9.30
